Time;durP1;ratioP1;P1;durP2;ratioP2;P2;SDS_P1;SDS_P2;PMS_P1;PMS_P2;Temp;Humidity;BMP_temperature;BMP_pressure;BME280_temperature;BME280_humidity;BME280_pressure;Samples;Min_cycle;Max_cycle;Signal;HPM_P1;HPM_P2
2022/10/04 00:01:43;;;;;;;;;;;12.80;93.90;;;;;;6063527;23;20002;-79
2022/10/04 00:04:13;;;;;;;;;;;12.80;93.40;;;;;;6062012;23;19922;-79
2022/10/04 00:06:55;;;;;;;;;;;12.80;93.30;;;;;;6084147;23;20005;-78
2022/10/04 00:09:23;;;;;;;;;;;12.80;93.20;;;;;;6078905;23;19924;-78
2022/10/04 00:11:52;;;;;;;;;;;12.80;93.80;;;;;;6085801;23;19928;-79
2022/10/04 00:14:27;;;;;;;;;;;12.80;93.90;;;;;;6086154;23;19917;-78
2022/10/04 00:16:55;;;;;;;;;;;12.80;93.80;;;;;;6090454;23;20258;-78
2022/10/04 00:19:35;;;;;;;;;;;12.70;93.90;;;;;;6049278;23;19917;-78
2022/10/04 00:22:09;;;;;;;;;;;12.70;93.80;;;;;;6096749;23;20000;-78
2022/10/04 00:24:36;;;;;;;;;;;12.70;93.50;;;;;;6097127;23;19921;-78
2022/10/04 00:27:17;;;;;;;;;;;12.60;93.60;;;;;;6119378;23;19945;-78
2022/10/04 00:29:49;;;;;;;;;;;12.60;93.70;;;;;;6119111;23;19921;-77
2022/10/04 00:32:24;;;;;;;;;;;12.60;93.50;;;;;;6120139;23;19997;-79
2022/10/04 00:34:51;;;;;;;;;;;12.60;93.20;;;;;;6119574;23;19987;-78
2022/10/04 00:37:19;;;;;;;;;;;12.60;93.20;;;;;;6120089;23;19927;-79
2022/10/04 00:39:46;;;;;;;;;;;12.50;93.20;;;;;;6119361;23;19921;-79
2022/10/04 00:42:25;;;;;;;;;;;12.50;93.00;;;;;;6120087;23;20330;-78
2022/10/04 00:44:54;;;;;;;;;;;12.40;93.00;;;;;;6119134;23;19923;-78
2022/10/04 00:47:36;;;;;;;;;;;12.40;93.00;;;;;;6119570;23;19996;-79
2022/10/04 00:50:18;;;;;;;;;;;12.40;93.30;;;;;;6118785;23;19995;-78
2022/10/04 00:52:48;;;;;;;;;;;12.30;93.70;;;;;;6094835;23;20261;-79
2022/10/04 00:55:23;;;;;;;;;;;12.30;93.50;;;;;;6119791;23;19927;-78
2022/10/04 00:57:53;;;;;;;;;;;12.30;93.20;;;;;;6119024;23;20000;-78
2022/10/04 01:00:20;;;;;;;;;;;12.30;93.40;;;;;;6119635;23;20000;-78
2022/10/04 01:02:52;;;;;;;;;;;12.30;93.40;;;;;;6119431;23;20253;-79
2022/10/04 01:05:28;;;;;;;;;;;12.30;93.20;;;;;;6095574;23;20279;-78
2022/10/04 01:08:02;;;;;;;;;;;12.30;92.90;;;;;;6118719;23;19921;-78
2022/10/04 01:10:38;;;;;;;;;;;12.40;92.30;;;;;;6095299;23;19917;-78
2022/10/04 01:13:07;;;;;;;;;;;12.40;92.20;;;;;;6118946;23;20000;-78
2022/10/04 01:15:37;;;;;;;;;;;12.50;91.80;;;;;;6119796;23;20254;-78
2022/10/04 01:18:15;;;;;;;;;;;12.50;91.80;;;;;;6118711;23;19952;-78
2022/10/04 01:20:53;;;;;;;;;;;12.50;91.70;;;;;;6097002;23;19917;-78
2022/10/04 01:23:58;;;;;;;;;;;12.50;90.50;;;;;;6094949;23;20258;-79
2022/10/04 01:26:28;;;;;;;;;;;12.70;89.10;;;;;;6036265;23;19929;-78
2022/10/04 01:29:04;;;;;;;;;;;12.90;85.80;;;;;;6086377;23;19921;-78
2022/10/04 01:31:32;;;;;;;;;;;13.00;84.40;;;;;;6119373;23;19923;-78
2022/10/04 01:34:00;;;;;;;;;;;13.10;83.00;;;;;;6095396;23;19917;-78
2022/10/04 01:36:27;;;;;;;;;;;13.20;81.80;;;;;;6118706;23;19925;-78
2022/10/04 01:38:54;;;;;;;;;;;13.40;80.00;;;;;;6095378;23;19996;-78
2022/10/04 01:41:31;;;;;;;;;;;13.50;77.40;;;;;;6094209;23;19917;-78
2022/10/04 01:44:00;;;;;;;;;;;13.70;76.50;;;;;;6095288;23;19927;-79
2022/10/04 01:46:30;;;;;;;;;;;13.80;75.30;;;;;;6094254;23;19917;-78
2022/10/04 01:48:59;;;;;;;;;;;13.90;74.20;;;;;;6096301;23;19917;-80
2022/10/04 01:51:28;;;;;;;;;;;14.00;73.00;;;;;;6118544;23;19917;-78
2022/10/04 01:54:02;;;;;;;;;;;14.10;71.40;;;;;;6119318;23;19944;-78
2022/10/04 01:57:05;;;;;;;;;;;14.20;71.70;;;;;;6118629;23;20000;-78
2022/10/04 01:59:36;;;;;;;;;;;14.20;70.90;;;;;;6035538;23;19918;-78
2022/10/04 02:02:24;;;;;;;;;;;14.30;70.90;;;;;;6086395;23;19928;-78
2022/10/04 02:04:53;;;;;;;;;;;14.30;70.20;;;;;;6118635;23;19945;-78
2022/10/04 02:07:21;;;;;;;;;;;14.40;69.70;;;;;;6119204;23;20321;-78
2022/10/04 02:09:49;;;;;;;;;;;14.40;68.70;;;;;;6094301;23;19996;-77
2022/10/04 02:12:17;;;;;;;;;;;14.50;68.90;;;;;;6118785;23;19984;-78
2022/10/04 02:14:51;;;;;;;;;;;14.50;69.10;;;;;;6117048;23;19937;-78
2022/10/04 02:17:24;;;;;;;;;;;14.50;69.00;;;;;;6119437;23;19949;-78
2022/10/04 02:19:51;;;;;;;;;;;14.50;68.90;;;;;;6118524;23;20304;-78
2022/10/04 02:22:18;;;;;;;;;;;14.40;68.80;;;;;;6119259;23;19931;-79
2022/10/04 02:24:47;;;;;;;;;;;14.40;68.80;;;;;;6093434;23;19917;-78
2022/10/04 02:27:14;;;;;;;;;;;14.40;68.40;;;;;;6118937;23;19918;-78
2022/10/04 02:29:41;;;;;;;;;;;14.50;67.90;;;;;;6118605;23;19996;-78
2022/10/04 02:34:54;;;;;;;;;;;14.50;67.30;;;;;;6095522;23;20235;-78
2022/10/04 02:37:22;;;;;;;;;;;14.60;67.20;;;;;;6118603;23;19988;-78
2022/10/04 02:39:52;;;;;;;;;;;14.60;66.30;;;;;;6118348;23;19984;-78
2022/10/04 02:42:28;;;;;;;;;;;14.70;66.70;;;;;;6119040;23;20250;-80
2022/10/04 02:44:59;;;;;;;;;;;14.70;67.10;;;;;;6066558;23;19917;-78
2022/10/04 02:47:29;;;;;;;;;;;14.60;67.20;;;;;;6065869;23;20335;-78
2022/10/04 02:50:08;;;;;;;;;;;14.50;67.00;;;;;;6106540;23;19948;-78
2022/10/04 02:52:42;;;;;;;;;;;14.50;66.60;;;;;;6118233;23;19945;-78
2022/10/04 02:55:18;;;;;;;;;;;14.50;66.60;;;;;;6094482;23;19971;-78
2022/10/04 02:57:44;;;;;;;;;;;14.50;65.80;;;;;;6093738;23;19993;-78
2022/10/04 03:00:11;;;;;;;;;;;14.50;65.60;;;;;;6118677;23;19927;-78
2022/10/04 03:02:38;;;;;;;;;;;14.60;65.80;;;;;;6118098;23;19928;-78
2022/10/04 03:05:07;;;;;;;;;;;14.60;65.20;;;;;;6118732;23;19925;-78
2022/10/04 03:07:34;;;;;;;;;;;14.60;64.40;;;;;;6117841;23;19917;-78
2022/10/04 03:10:06;;;;;;;;;;;14.70;64.10;;;;;;6118709;23;19923;-78
2022/10/04 03:12:34;;;;;;;;;;;14.70;64.50;;;;;;6093820;23;20374;-79
2022/10/04 03:15:00;;;;;;;;;;;14.70;64.60;;;;;;6095798;23;20250;-78
2022/10/04 03:17:28;;;;;;;;;;;14.70;64.60;;;;;;6118779;23;19999;-78
2022/10/04 03:19:56;;;;;;;;;;;14.70;64.70;;;;;;6093511;23;19917;-78
2022/10/04 03:22:22;;;;;;;;;;;14.70;64.80;;;;;;6094526;23;20339;-79
2022/10/04 03:24:52;;;;;;;;;;;14.70;64.80;;;;;;6093548;23;19917;-78
2022/10/04 03:27:25;;;;;;;;;;;14.70;64.70;;;;;;6118872;23;19917;-77
2022/10/04 03:29:52;;;;;;;;;;;14.70;64.50;;;;;;6118215;23;19927;-78
2022/10/04 03:32:25;;;;;;;;;;;14.70;64.40;;;;;;6095701;23;19997;-79
2022/10/04 03:34:56;;;;;;;;;;;14.70;64.70;;;;;;6117616;23;19945;-78
2022/10/04 03:37:24;;;;;;;;;;;14.70;64.60;;;;;;6118502;23;19987;-78
2022/10/04 03:39:52;;;;;;;;;;;14.70;64.60;;;;;;6118309;23;19917;-78
2022/10/04 03:42:27;;;;;;;;;;;14.70;64.40;;;;;;6118405;23;19928;-78
2022/10/04 03:44:56;;;;;;;;;;;14.70;64.30;;;;;;6117915;23;19968;-78
2022/10/04 03:47:31;;;;;;;;;;;14.70;64.40;;;;;;6118403;23;19927;-78
2022/10/04 03:50:00;;;;;;;;;;;14.80;64.30;;;;;;6117917;23;19936;-79
2022/10/04 03:52:29;;;;;;;;;;;14.70;64.30;;;;;;6118566;23;19992;-78
2022/10/04 03:54:58;;;;;;;;;;;14.80;64.40;;;;;;6094892;23;20004;-78
2022/10/04 03:57:25;;;;;;;;;;;14.80;64.50;;;;;;6095397;23;20283;-79
2022/10/04 03:59:52;;;;;;;;;;;14.80;64.00;;;;;;6117798;23;19944;-78
2022/10/04 04:02:24;;;;;;;;;;;14.80;64.40;;;;;;6118444;23;19921;-78
2022/10/04 04:04:57;;;;;;;;;;;14.80;64.00;;;;;;6117867;23;20258;-77
2022/10/04 04:07:27;;;;;;;;;;;14.80;63.70;;;;;;6118409;23;19949;-78
2022/10/04 04:10:06;;;;;;;;;;;14.80;63.80;;;;;;6117919;23;20304;-78
2022/10/04 04:12:42;;;;;;;;;;;14.80;63.90;;;;;;6118626;23;20236;-78
2022/10/04 04:15:10;;;;;;;;;;;14.80;64.40;;;;;;6118081;23;19917;-78
2022/10/04 04:17:38;;;;;;;;;;;14.80;63.80;;;;;;6118253;23;19940;-78
2022/10/04 04:20:09;;;;;;;;;;;14.80;63.70;;;;;;6117590;23;19993;-78
2022/10/04 04:22:36;;;;;;;;;;;14.70;63.90;;;;;;6095481;23;20349;-78
2022/10/04 04:25:05;;;;;;;;;;;14.70;63.70;;;;;;6093523;23;19949;-78
2022/10/04 04:27:34;;;;;;;;;;;14.60;63.70;;;;;;6118355;23;19921;-77
2022/10/04 04:30:02;;;;;;;;;;;14.70;63.40;;;;;;6117671;23;20295;-78
2022/10/04 04:32:35;;;;;;;;;;;14.60;63.00;;;;;;6118075;23;20365;-78
2022/10/04 04:35:06;;;;;;;;;;;14.60;63.50;;;;;;6095334;23;19996;-78
2022/10/04 04:37:34;;;;;;;;;;;14.60;63.40;;;;;;6119671;23;20279;-79
2022/10/04 04:40:30;;;;;;;;;;;14.60;63.40;;;;;;6119515;23;19921;-78
2022/10/04 04:42:58;;;;;;;;;;;14.60;63.90;;;;;;6083195;23;19917;-77
2022/10/04 04:45:28;;;;;;;;;;;14.50;64.10;;;;;;6095458;23;20246;-78
2022/10/04 04:47:56;;;;;;;;;;;14.50;64.40;;;;;;6119064;23;19925;-78
2022/10/04 04:50:29;;;;;;;;;;;14.40;64.10;;;;;;6119851;23;19992;-78
2022/10/04 04:53:02;;;;;;;;;;;14.40;64.60;;;;;;6119090;23;19917;-78
2022/10/04 04:55:33;;;;;;;;;;;14.40;64.60;;;;;;6097191;23;20675;-78
2022/10/04 04:58:22;;;;;;;;;;;14.40;64.80;;;;;;6096462;23;19934;-78
2022/10/04 05:01:14;;;;;;;;;;;14.40;64.80;;;;;;6119791;23;20339;-78
2022/10/04 05:03:41;;;;;;;;;;;14.40;64.00;;;;;;6119009;23;19940;-78
2022/10/04 05:06:24;;;;;;;;;;;14.50;63.90;;;;;;6120114;23;19945;-78
2022/10/04 05:08:51;;;;;;;;;;;14.50;63.80;;;;;;6119110;23;19924;-78
2022/10/04 05:11:20;;;;;;;;;;;14.50;63.40;;;;;;6119828;23;19999;-78
2022/10/04 05:13:49;;;;;;;;;;;14.40;63.20;;;;;;6094538;23;19991;-78
2022/10/04 05:16:19;;;;;;;;;;;14.40;63.50;;;;;;6095218;23;20247;-78
2022/10/04 05:18:47;;;;;;;;;;;14.40;63.70;;;;;;6094810;23;20031;-78
2022/10/04 05:21:25;;;;;;;;;;;14.30;63.80;;;;;;6095052;23;19988;-78
2022/10/04 05:23:52;;;;;;;;;;;14.30;63.90;;;;;;6082693;23;19917;-78
2022/10/04 05:26:25;;;;;;;;;;;14.30;63.00;;;;;;6119437;23;20330;-78
2022/10/04 05:28:53;;;;;;;;;;;14.30;62.90;;;;;;6096071;23;20426;-78
2022/10/04 05:31:22;;;;;;;;;;;14.40;62.60;;;;;;6119445;23;20291;-78
2022/10/04 05:33:51;;;;;;;;;;;14.30;62.70;;;;;;6118889;23;19923;-78
2022/10/04 05:36:28;;;;;;;;;;;14.30;63.20;;;;;;6118966;23;20003;-80
2022/10/04 05:39:02;;;;;;;;;;;14.30;62.90;;;;;;6118267;23;19992;-79
2022/10/04 05:41:38;;;;;;;;;;;14.30;63.10;;;;;;6118674;23;19917;-79
2022/10/04 05:44:37;;;;;;;;;;;14.20;63.20;;;;;;6093970;23;19924;-78
2022/10/04 05:47:05;;;;;;;;;;;14.20;63.20;;;;;;6061558;23;19960;-78
2022/10/04 05:49:45;;;;;;;;;;;14.20;63.50;;;;;;6118590;23;19996;-78
2022/10/04 05:52:14;;;;;;;;;;;14.20;63.50;;;;;;6118798;23;19951;-78
2022/10/04 05:54:40;;;;;;;;;;;14.20;63.20;;;;;;6119826;23;19917;-78
2022/10/04 05:57:36;;;;;;;;;;;14.20;63.50;;;;;;6116839;23;19925;-78
2022/10/04 06:00:07;;;;;;;;;;;14.10;63.70;;;;;;6081882;23;19928;-79
2022/10/04 06:02:53;;;;;;;;;;;14.10;63.40;;;;;;6095223;23;19953;-78
2022/10/04 06:05:39;;;;;;;;;;;14.10;63.60;;;;;;6095203;23;19988;-78
2022/10/04 06:08:24;;;;;;;;;;;14.10;63.80;;;;;;6118469;23;19945;-78
2022/10/04 06:11:01;;;;;;;;;;;14.10;63.40;;;;;;6095981;23;19988;-79
2022/10/04 06:13:45;;;;;;;;;;;14.10;63.80;;;;;;6117795;23;20284;-79
2022/10/04 06:16:28;;;;;;;;;;;14.10;63.80;;;;;;6118177;23;19999;-78
2022/10/04 06:19:15;;;;;;;;;;;14.10;63.70;;;;;;6118766;23;19949;-78
2022/10/04 06:21:42;;;;;;;;;;;14.10;63.90;;;;;;6097481;23;20000;-78
2022/10/04 06:24:16;;;;;;;;;;;14.10;63.90;;;;;;6119164;23;19985;-79
2022/10/04 06:26:55;;;;;;;;;;;14.10;63.60;;;;;;6094082;23;19944;-79
2022/10/04 06:29:24;;;;;;;;;;;14.10;63.90;;;;;;6118453;23;20460;-78
2022/10/04 06:31:54;;;;;;;;;;;14.20;64.10;;;;;;6096035;23;19995;-79
2022/10/04 06:34:22;;;;;;;;;;;14.20;64.00;;;;;;6118056;23;19932;-78
2022/10/04 06:36:49;;;;;;;;;;;14.20;63.80;;;;;;6120407;23;19941;-78
2022/10/04 06:39:31;;;;;;;;;;;14.30;63.90;;;;;;6121237;23;19917;-78
2022/10/04 06:42:09;;;;;;;;;;;14.30;63.90;;;;;;6128081;23;19956;-80
2022/10/04 06:44:39;;;;;;;;;;;14.30;62.70;;;;;;6123228;23;19917;-79
2022/10/04 06:47:29;;;;;;;;;;;14.40;62.90;;;;;;6123301;23;19924;-78
2022/10/04 06:50:05;;;;;;;;;;;14.40;62.90;;;;;;6124197;23;19937;-78
2022/10/04 06:53:11;;;;;;;;;;;14.50;62.40;;;;;;6124148;23;19927;-78
2022/10/04 06:56:01;;;;;;;;;;;14.50;62.10;;;;;;6070305;23;19921;-78
2022/10/04 06:58:38;;;;;;;;;;;14.60;62.20;;;;;;6072557;23;20315;-78
2022/10/04 07:01:21;;;;;;;;;;;14.60;62.40;;;;;;6090991;23;19992;-78
2022/10/04 07:03:57;;;;;;;;;;;14.60;62.10;;;;;;6097002;23;19995;-78
2022/10/04 07:06:30;;;;;;;;;;;14.70;61.60;;;;;;6118588;23;19996;-78
2022/10/04 07:09:01;;;;;;;;;;;14.80;60.60;;;;;;6096379;23;19953;-77
2022/10/04 07:11:31;;;;;;;;;;;14.90;60.90;;;;;;6119797;23;19992;-78
2022/10/04 07:14:04;;;;;;;;;;;15.00;60.00;;;;;;6119249;23;19945;-78
2022/10/04 07:16:34;;;;;;;;;;;15.10;59.80;;;;;;6127526;23;19924;-78
2022/10/04 07:19:19;;;;;;;;;;;15.20;60.60;;;;;;6106801;23;19932;-78
2022/10/04 07:21:54;;;;;;;;;;;15.30;59.60;;;;;;6122388;23;19941;-78
2022/10/04 07:24:31;;;;;;;;;;;15.40;58.90;;;;;;6123914;23;20335;-78
2022/10/04 07:27:00;;;;;;;;;;;15.50;58.60;;;;;;6124135;23;19993;-78
2022/10/04 07:29:29;;;;;;;;;;;15.50;58.10;;;;;;6100930;23;20297;-77
2022/10/04 07:32:20;;;;;;;;;;;15.60;58.10;;;;;;6107106;23;19960;-77
2022/10/04 07:34:56;;;;;;;;;;;15.70;58.10;;;;;;6109118;23;19923;-78
2022/10/04 07:37:24;;;;;;;;;;;15.80;58.60;;;;;;6125927;23;19921;-78
2022/10/04 07:40:15;;;;;;;;;;;15.90;57.90;;;;;;6126273;23;19972;-82
2022/10/04 07:42:41;;;;;;;;;;;16.10;58.40;;;;;;6119632;23;20349;-79
2022/10/04 07:45:08;;;;;;;;;;;16.20;57.70;;;;;;6118481;23;19921;-80
2022/10/04 07:47:35;;;;;;;;;;;16.30;57.50;;;;;;6116902;23;20258;-80
2022/10/04 07:50:20;;;;;;;;;;;16.40;56.90;;;;;;6094536;23;19944;-79
2022/10/04 07:53:07;;;;;;;;;;;16.40;56.80;;;;;;6117148;23;19917;-79
2022/10/04 07:55:48;;;;;;;;;;;16.50;57.10;;;;;;6084663;23;20386;-80
2022/10/04 07:58:25;;;;;;;;;;;16.70;56.90;;;;;;6118105;23;19917;-79
2022/10/04 08:00:54;;;;;;;;;;;16.80;56.00;;;;;;6117636;23;19923;-79
2022/10/04 08:03:40;;;;;;;;;;;16.90;54.70;;;;;;6118280;23;19927;-79
2022/10/04 08:06:13;;;;;;;;;;;17.00;56.00;;;;;;6117785;23;19917;-79
2022/10/04 08:08:59;;;;;;;;;;;17.00;54.80;;;;;;6095436;23;19921;-79
2022/10/04 08:11:35;;;;;;;;;;;17.00;54.60;;;;;;6094824;23;19952;-79
2022/10/04 08:14:17;;;;;;;;;;;17.20;55.60;;;;;;6096688;23;20311;-79
2022/10/04 08:16:56;;;;;;;;;;;17.40;56.50;;;;;;6119276;23;19921;-79
2022/10/04 08:19:29;;;;;;;;;;;17.70;54.40;;;;;;6118314;23;19917;-79
2022/10/04 08:21:55;;;;;;;;;;;18.00;52.30;;;;;;6119667;23;20262;-79
2022/10/04 08:24:28;;;;;;;;;;;18.30;50.90;;;;;;6118585;23;19936;-79
2022/10/04 08:27:04;;;;;;;;;;;18.50;50.60;;;;;;6119529;23;20254;-80
2022/10/04 08:29:43;;;;;;;;;;;18.70;52.30;;;;;;6120182;23;19928;-79
2022/10/04 08:32:28;;;;;;;;;;;18.90;49.80;;;;;;6120993;23;19918;-80
2022/10/04 08:35:06;;;;;;;;;;;19.10;49.10;;;;;;6120761;23;19992;-80
2022/10/04 08:37:52;;;;;;;;;;;19.30;48.90;;;;;;6121264;23;20322;-82
2022/10/04 08:40:42;;;;;;;;;;;19.50;48.50;;;;;;6121146;23;20250;-80
2022/10/04 08:43:15;;;;;;;;;;;19.60;48.30;;;;;;6099179;23;20295;-79
2022/10/04 08:46:20;;;;;;;;;;;19.70;48.40;;;;;;6122105;23;19949;-80
2022/10/04 08:48:57;;;;;;;;;;;19.80;47.50;;;;;;6014192;23;19957;-80
2022/10/04 08:51:43;;;;;;;;;;;20.00;47.30;;;;;;6013628;23;19946;-79
2022/10/04 08:54:26;;;;;;;;;;;20.20;47.00;;;;;;6078414;23;19917;-80
2022/10/04 08:57:03;;;;;;;;;;;20.40;46.10;;;;;;6120563;23;19961;-80
2022/10/04 08:59:53;;;;;;;;;;;20.50;46.20;;;;;;6119761;23;20008;-79
2022/10/04 09:02:32;;;;;;;;;;;20.50;46.80;;;;;;6121633;23;20000;-80
2022/10/04 09:05:17;;;;;;;;;;;20.60;47.90;;;;;;6119435;23;19928;-79
2022/10/04 09:08:06;;;;;;;;;;;20.70;48.50;;;;;;6122496;23;19921;-78
2022/10/04 09:10:32;;;;;;;;;;;20.90;50.40;;;;;;6120775;23;20339;-80
2022/10/04 09:13:05;;;;;;;;;;;21.00;50.50;;;;;;6120642;23;20286;-81
2022/10/04 09:15:52;;;;;;;;;;;21.20;57.20;;;;;;6098969;23;19925;-81
2022/10/04 09:18:20;;;;;;;;;;;21.20;59.90;;;;;;6119710;23;19917;-80
2022/10/04 09:20:47;;;;;;;;;;;20.80;63.70;;;;;;6123893;23;19917;-82
2022/10/04 09:23:16;;;;;;;;;;;20.60;66.20;;;;;;6127665;23;20385;-80
2022/10/04 09:25:43;;;;;;;;;;;20.80;65.90;;;;;;6122024;23;19924;-80
2022/10/04 09:28:29;;;;;;;;;;;20.90;67.00;;;;;;6120456;23;19918;-80
2022/10/04 09:31:14;;;;;;;;;;;20.80;67.80;;;;;;6134585;23;19927;-81
2022/10/04 09:33:59;;;;;;;;;;;20.60;68.70;;;;;;6130330;23;19921;-80
2022/10/04 09:36:29;;;;;;;;;;;20.50;69.80;;;;;;6105382;23;20350;-81
2022/10/04 09:39:11;;;;;;;;;;;20.70;71.10;;;;;;6133238;23;19955;-80
2022/10/04 09:42:16;;;;;;;;;;;20.90;69.20;;;;;;6117195;23;19960;-80
2022/10/04 09:44:45;;;;;;;;;;;20.90;68.60;;;;;;6131477;23;20307;-80
2022/10/04 09:47:12;;;;;;;;;;;20.50;69.90;;;;;;6109019;23;19924;-80
2022/10/04 09:49:57;;;;;;;;;;;20.40;72.10;;;;;;6128740;23;19917;-80
2022/10/04 09:52:33;;;;;;;;;;;20.50;72.90;;;;;;6106425;23;20316;-80
2022/10/04 09:55:06;;;;;;;;;;;20.50;73.20;;;;;;6135902;23;20448;-80
2022/10/04 09:57:38;;;;;;;;;;;20.70;72.20;;;;;;6129298;23;20294;-80
2022/10/04 10:00:20;;;;;;;;;;;20.90;70.30;;;;;;6130125;23;19955;-81
2022/10/04 10:03:23;;;;;;;;;;;20.80;72.10;;;;;;6128763;23;19917;-80
2022/10/04 10:06:02;;;;;;;;;;;20.80;72.00;;;;;;6041649;23;19989;-80
2022/10/04 10:08:35;;;;;;;;;;;20.90;71.60;;;;;;6097875;23;19939;-81
2022/10/04 10:14:06;;;;;;;;;;;21.00;71.60;;;;;;6109730;23;19921;-80
2022/10/04 10:16:52;;;;;;;;;;;21.00;72.00;;;;;;6100427;23;19940;-80
2022/10/04 10:19:37;;;;;;;;;;;21.20;71.10;;;;;;6123174;23;19992;-80
2022/10/04 10:22:13;;;;;;;;;;;21.50;70.60;;;;;;6123067;23;19917;-80
2022/10/04 10:24:46;;;;;;;;;;;21.40;69.70;;;;;;6122737;23;19921;-80
2022/10/04 10:27:19;;;;;;;;;;;21.70;68.90;;;;;;6124098;23;19923;-80
2022/10/04 10:30:02;;;;;;;;;;;21.80;67.60;;;;;;6124236;23;19921;-80
2022/10/04 10:32:41;;;;;;;;;;;21.90;68.20;;;;;;6102020;23;19959;-80
2022/10/04 10:35:21;;;;;;;;;;;22.00;68.50;;;;;;6125524;23;20338;-80
2022/10/04 10:38:07;;;;;;;;;;;22.10;67.50;;;;;;6126272;23;19987;-80
2022/10/04 10:40:36;;;;;;;;;;;22.10;68.80;;;;;;6123829;23;20299;-80
2022/10/04 10:43:03;;;;;;;;;;;22.30;68.10;;;;;;6123959;23;19988;-80
2022/10/04 10:45:44;;;;;;;;;;;22.30;67.00;;;;;;6121834;23;19917;-80
2022/10/04 10:48:13;;;;;;;;;;;22.40;67.20;;;;;;6119379;23;19923;-80
2022/10/04 10:50:58;;;;;;;;;;;22.50;66.30;;;;;;6099213;23;19917;-80
2022/10/04 10:53:34;;;;;;;;;;;22.60;65.10;;;;;;6121191;23;20068;-80
2022/10/04 10:56:10;;;;;;;;;;;22.50;66.50;;;;;;6096457;23;20258;-80
2022/10/04 10:58:53;;;;;;;;;;;22.20;67.60;;;;;;6067593;23;19992;-81
2022/10/04 11:01:40;;;;;;;;;;;22.20;66.90;;;;;;6068111;23;19917;-79
2022/10/04 11:04:25;;;;;;;;;;;22.30;68.20;;;;;;6039809;23;19918;-80
2022/10/04 11:07:12;;;;;;;;;;;22.30;67.30;;;;;;6109722;23;20288;-81
2022/10/04 11:09:58;;;;;;;;;;;22.10;68.60;;;;;;6119817;23;19917;-80
2022/10/04 11:12:33;;;;;;;;;;;22.10;68.50;;;;;;6121900;23;19936;-80
2022/10/04 11:15:20;;;;;;;;;;;22.10;68.70;;;;;;6097684;23;19991;-80
2022/10/04 11:18:16;;;;;;;;;;;22.00;69.80;;;;;;6087523;23;19943;-80
2022/10/04 11:20:58;;;;;;;;;;;22.00;70.40;;;;;;6083596;23;19917;-80
2022/10/04 11:23:30;;;;;;;;;;;21.90;69.90;;;;;;6099202;23;19941;-80
2022/10/04 11:26:21;;;;;;;;;;;22.00;69.20;;;;;;6121966;23;19937;-80
2022/10/04 11:28:55;;;;;;;;;;;22.10;69.50;;;;;;6121324;23;19987;-80
2022/10/04 11:31:36;;;;;;;;;;;22.10;69.20;;;;;;6122251;23;19987;-80
2022/10/04 11:34:10;;;;;;;;;;;22.20;69.20;;;;;;6121134;23;20235;-80
2022/10/04 11:36:51;;;;;;;;;;;22.00;68.60;;;;;;6121072;23;19952;-80
2022/10/04 11:39:47;;;;;;;;;;;22.10;69.70;;;;;;6122502;23;19921;-80
2022/10/04 11:42:17;;;;;;;;;;;22.10;69.60;;;;;;6121867;23;19917;-80
2022/10/04 11:44:43;;;;;;;;;;;22.20;68.80;;;;;;6123022;23;19970;-80
2022/10/04 11:47:28;;;;;;;;;;;22.30;68.20;;;;;;6120302;23;19925;-81
2022/10/04 11:49:55;;;;;;;;;;;22.40;66.40;;;;;;6122718;23;19931;-80
2022/10/04 11:52:28;;;;;;;;;;;22.40;65.20;;;;;;6121125;23;19948;-80
2022/10/04 11:55:22;;;;;;;;;;;22.40;66.20;;;;;;6121197;23;19951;-80
2022/10/04 11:58:01;;;;;;;;;;;22.40;65.70;;;;;;6121518;23;20334;-80
2022/10/04 12:00:43;;;;;;;;;;;22.30;65.60;;;;;;6121271;23;19980;-80
2022/10/04 12:03:29;;;;;;;;;;;22.40;66.90;;;;;;6121033;23;19917;-80
2022/10/04 12:06:12;;;;;;;;;;;22.10;68.30;;;;;;6122606;23;19917;-80
2022/10/04 12:09:03;;;;;;;;;;;21.90;68.00;;;;;;6121023;23;20212;-80
2022/10/04 12:14:37;;;;;;;;;;;21.90;69.80;;;;;;6098078;23;20070;-80
2022/10/04 12:17:10;;;;;;;;;;;22.10;68.70;;;;;;6120434;23;19996;-80
2022/10/04 12:19:42;;;;;;;;;;;21.90;68.40;;;;;;6119487;23;19939;-80
2022/10/04 12:22:38;;;;;;;;;;;21.70;67.10;;;;;;6120656;23;19917;-80
2022/10/04 12:25:28;;;;;;;;;;;21.60;68.90;;;;;;6118932;23;19952;-80
2022/10/04 12:28:13;;;;;;;;;;;21.70;70.30;;;;;;6086960;23;19944;-80
2022/10/04 12:30:52;;;;;;;;;;;21.90;69.40;;;;;;6119163;23;19927;-81
2022/10/04 12:33:19;;;;;;;;;;;21.80;69.10;;;;;;6095204;23;19996;-80
2022/10/04 12:35:51;;;;;;;;;;;21.90;69.20;;;;;;6119262;23;19917;-80
2022/10/04 12:38:26;;;;;;;;;;;21.70;69.40;;;;;;6117859;23;19996;-80
2022/10/04 12:40:56;;;;;;;;;;;21.60;70.30;;;;;;6118663;23;19917;-80
2022/10/04 12:43:44;;;;;;;;;;;21.60;71.20;;;;;;6118089;23;19951;-82
2022/10/04 12:46:11;;;;;;;;;;;21.80;70.90;;;;;;6119741;23;19917;-81
2022/10/04 12:48:44;;;;;;;;;;;21.80;70.30;;;;;;6120021;23;19999;-80
2022/10/04 12:51:13;;;;;;;;;;;21.60;69.30;;;;;;6119721;23;19996;-81
2022/10/04 12:53:48;;;;;;;;;;;21.60;70.10;;;;;;6119771;23;20012;-80
2022/10/04 12:56:36;;;;;;;;;;;21.70;71.80;;;;;;6120393;23;19917;-80
2022/10/04 12:59:02;;;;;;;;;;;21.80;70.10;;;;;;6097584;23;19933;-80
2022/10/04 13:01:49;;;;;;;;;;;21.80;69.30;;;;;;6123035;23;19918;-80
2022/10/04 13:04:28;;;;;;;;;;;21.90;70.50;;;;;;6097179;23;19988;-80
2022/10/04 13:06:54;;;;;;;;;;;21.80;69.20;;;;;;6124051;23;19924;-81
2022/10/04 13:09:33;;;;;;;;;;;21.80;69.50;;;;;;6121747;23;19944;-80
2022/10/04 13:12:12;;;;;;;;;;;21.70;70.10;;;;;;6121177;23;19917;-80
2022/10/04 13:14:40;;;;;;;;;;;21.80;70.30;;;;;;6121876;23;19921;-80
2022/10/04 13:17:12;;;;;;;;;;;21.70;71.10;;;;;;6118966;23;19921;-80
2022/10/04 13:20:13;;;;;;;;;;;21.60;70.10;;;;;;6117706;23;20247;-80
2022/10/04 13:22:45;;;;;;;;;;;21.70;70.80;;;;;;6121135;23;19928;-80
2022/10/04 13:25:46;;;;;;;;;;;21.90;69.20;;;;;;6116391;23;20304;-80
2022/10/04 13:28:28;;;;;;;;;;;21.70;69.20;;;;;;6121674;23;19992;-80
2022/10/04 13:31:23;;;;;;;;;;;21.70;70.10;;;;;;6122132;23;19969;-80
2022/10/04 13:34:08;;;;;;;;;;;21.80;69.90;;;;;;6094501;23;19925;-80
2022/10/04 13:36:54;;;;;;;;;;;21.60;69.20;;;;;;6121884;23;19924;-80
2022/10/04 13:39:20;;;;;;;;;;;21.60;69.90;;;;;;6120863;23;20011;-80
2022/10/04 13:41:50;;;;;;;;;;;21.80;71.70;;;;;;6121545;23;20246;-80
2022/10/04 13:44:29;;;;;;;;;;;21.70;70.50;;;;;;6121654;23;19921;-80
2022/10/04 13:46:55;;;;;;;;;;;21.70;70.50;;;;;;6122994;23;20257;-80
2022/10/04 13:49:42;;;;;;;;;;;21.70;70.20;;;;;;6123723;23;19980;-80
2022/10/04 13:58:01;;;;;;;;;;;21.70;69.60;;;;;;6099536;23;19992;-80
2022/10/04 14:00:27;;;;;;;;;;;21.70;67.50;;;;;;6122925;23;19924;-80
2022/10/04 14:03:14;;;;;;;;;;;21.60;67.90;;;;;;6121368;23;20001;-80
2022/10/04 14:05:41;;;;;;;;;;;21.50;68.40;;;;;;6069875;23;19996;-80
2022/10/04 14:08:26;;;;;;;;;;;21.50;68.50;;;;;;6121755;23;19923;-80
2022/10/04 14:11:20;;;;;;;;;;;21.60;69.00;;;;;;6096225;23;19943;-80
2022/10/04 14:14:01;;;;;;;;;;;21.60;67.80;;;;;;6097586;23;19970;-80
2022/10/04 14:16:32;;;;;;;;;;;21.50;68.40;;;;;;6118737;23;19923;-79
2022/10/04 14:19:02;;;;;;;;;;;21.60;68.70;;;;;;6119892;23;19921;-80
2022/10/04 14:21:49;;;;;;;;;;;21.60;69.10;;;;;;6119835;23;20335;-80
2022/10/04 14:24:32;;;;;;;;;;;21.60;69.60;;;;;;6118731;23;19928;-79
2022/10/04 14:27:16;;;;;;;;;;;21.70;68.90;;;;;;6119104;23;19948;-80
2022/10/04 14:30:06;;;;;;;;;;;21.60;68.60;;;;;;6120182;23;19941;-80
2022/10/04 14:32:39;;;;;;;;;;;21.60;68.20;;;;;;6118736;23;20004;-80
2022/10/04 14:35:20;;;;;;;;;;;21.60;69.10;;;;;;6119559;23;19996;-80
2022/10/04 14:38:06;;;;;;;;;;;21.60;69.30;;;;;;6118487;23;19941;-80
2022/10/04 14:40:39;;;;;;;;;;;21.70;69.20;;;;;;6118284;23;20230;-80
2022/10/04 14:43:14;;;;;;;;;;;21.80;69.70;;;;;;6119256;23;19992;-80
2022/10/04 14:45:43;;;;;;;;;;;21.80;70.30;;;;;;6119255;23;19941;-81
2022/10/04 14:48:11;;;;;;;;;;;21.70;69.90;;;;;;6118819;23;19917;-80
2022/10/04 14:50:43;;;;;;;;;;;21.60;69.30;;;;;;6118061;23;19970;-80
2022/10/04 14:53:10;;;;;;;;;;;21.70;69.50;;;;;;6118698;23;19945;-80
2022/10/04 14:55:54;;;;;;;;;;;21.80;69.00;;;;;;6118802;23;19988;-80
2022/10/04 14:58:44;;;;;;;;;;;21.80;68.60;;;;;;6097040;23;20254;-79
2022/10/04 15:01:21;;;;;;;;;;;21.90;68.90;;;;;;6117220;23;20339;-80
2022/10/04 15:03:51;;;;;;;;;;;21.90;69.60;;;;;;6117957;23;19917;-80
2022/10/04 15:06:35;;;;;;;;;;;21.80;68.00;;;;;;6120494;23;20290;-80
2022/10/04 15:09:01;;;;;;;;;;;21.80;68.40;;;;;;6120701;23;19923;-80
2022/10/04 15:11:35;;;;;;;;;;;21.70;68.10;;;;;;6120076;23;19917;-80
2022/10/04 15:14:21;;;;;;;;;;;21.60;68.40;;;;;;6125195;23;19917;-80
2022/10/04 15:16:52;;;;;;;;;;;21.60;68.60;;;;;;6125423;23;20338;-79
2022/10/04 15:19:18;;;;;;;;;;;21.60;69.00;;;;;;6119151;23;20008;-79
2022/10/04 15:21:48;;;;;;;;;;;21.50;69.60;;;;;;6131309;23;19967;-80